Time;durP1;ratioP1;P1;durP2;ratioP2;P2;SDS_P1;SDS_P2;PMS_P1;PMS_P2;Temp;Humidity;BMP_temperature;BMP_pressure;BME280_temperature;BME280_humidity;BME280_pressure;Samples;Min_cycle;Max_cycle;Signal;HPM_P1;HPM_P2
2022/01/12 00:00:22;;;;;;;158.27;41.22;;;;;;;;;;5034224;27;100298;-75
2022/01/12 00:02:49;;;;;;;189.13;42.17;;;;;;;;;;5016574;27;100552;-75
2022/01/12 00:05:16;;;;;;;140.68;39.60;;;;;;;;;;5034222;27;100492;-74
2022/01/12 00:07:43;;;;;;;166.82;43.10;;;;;;;;;;5034601;27;100131;-75
2022/01/12 00:10:10;;;;;;;152.75;35.83;;;;;;;;;;5050021;27;100792;-75
2022/01/12 00:12:37;;;;;;;136.30;38.35;;;;;;;;;;5052491;27;100521;-75
2022/01/12 00:15:04;;;;;;;181.80;36.85;;;;;;;;;;5034703;27;100180;-76
2022/01/12 00:17:32;;;;;;;148.20;37.92;;;;;;;;;;5052767;27;100016;-76
2022/01/12 00:19:59;;;;;;;139.82;41.20;;;;;;;;;;5034696;27;100007;-75
2022/01/12 00:22:28;;;;;;;170.73;38.67;;;;;;;;;;5052243;27;100533;-76
2022/01/12 00:33:10;;;;;;;124.88;36.97;;;;;;;;;;5050883;27;100774;-75
2022/01/12 00:35:43;;;;;;;101.07;29.48;;;;;;;;;;5050606;27;100075;-75
2022/01/12 00:38:11;;;;;;;128.65;35.65;;;;;;;;;;5034645;27;100141;-75
2022/01/12 00:40:47;;;;;;;107.13;30.23;;;;;;;;;;5050905;27;100219;-75
2022/01/12 00:43:14;;;;;;;123.25;37.53;;;;;;;;;;5034130;27;101795;-75
2022/01/12 00:45:42;;;;;;;113.82;34.50;;;;;;;;;;5030797;28;100556;-76
2022/01/12 00:48:10;;;;;;;93.68;28.27;;;;;;;;;;5001221;27;100101;-76
2022/01/12 00:50:37;;;;;;;127.35;30.17;;;;;;;;;;5013858;27;100943;-76
2022/01/12 00:53:04;;;;;;;105.18;28.23;;;;;;;;;;5013882;27;101105;-76
2022/01/12 00:55:31;;;;;;;106.20;30.67;;;;;;;;;;5018501;27;100187;-77
2022/01/12 00:57:59;;;;;;;102.13;27.45;;;;;;;;;;5017176;27;100139;-75
2022/01/12 01:00:26;;;;;;;112.28;31.15;;;;;;;;;;5051400;27;100408;-76
2022/01/12 01:02:53;;;;;;;105.60;31.70;;;;;;;;;;5033430;27;101788;-76
2022/01/12 01:05:22;;;;;;;100.20;29.63;;;;;;;;;;5017509;27;100253;-76
2022/01/12 01:07:49;;;;;;;108.57;32.85;;;;;;;;;;5033976;27;100093;-76
2022/01/12 01:10:30;;;;;;;103.47;28.88;;;;;;;;;;5017525;27;100268;-76
2022/01/12 01:12:58;;;;;;;107.30;26.80;;;;;;;;;;5035245;27;100729;-76
2022/01/12 01:15:53;;;;;;;97.20;24.20;;;;;;;;;;5013906;27;100058;-76
2022/01/12 01:26:35;;;;;;;104.00;30.00;;;;;;;;;;5036263;27;100182;-75
2022/01/12 01:29:02;;;;;;;88.45;23.25;;;;;;;;;;5016857;27;100230;-75
2022/01/12 01:31:32;;;;;;;84.97;25.63;;;;;;;;;;5034240;27;100903;-75
2022/01/12 01:34:06;;;;;;;92.35;24.48;;;;;;;;;;5036528;27;100703;-75
2022/01/12 01:36:34;;;;;;;96.18;25.05;;;;;;;;;;5016130;27;100306;-76
2022/01/12 01:39:01;;;;;;;93.22;23.77;;;;;;;;;;5012917;27;102709;-75
2022/01/12 01:41:28;;;;;;;103.93;28.38;;;;;;;;;;5031783;27;100995;-76
2022/01/12 01:55:20;;;;;;;105.15;28.90;;;;;;;;;;5009880;27;101351;-76
2022/01/12 01:57:48;;;;;;;98.00;29.42;;;;;;;;;;5016982;27;100130;-76
2022/01/12 02:00:19;;;;;;;102.38;28.13;;;;;;;;;;5035131;27;100151;-75
2022/01/12 02:02:57;;;;;;;88.32;24.17;;;;;;;;;;5053272;27;100280;-76
2022/01/12 02:05:34;;;;;;;112.80;31.33;;;;;;;;;;5036229;27;100583;-75
2022/01/12 02:08:01;;;;;;;92.53;25.48;;;;;;;;;;5020462;27;100011;-75
2022/01/12 02:10:33;;;;;;;124.75;28.67;;;;;;;;;;5021051;27;100013;-74
2022/01/12 02:13:00;;;;;;;72.63;21.52;;;;;;;;;;5036403;27;100500;-75
2022/01/12 02:15:26;;;;;;;106.00;30.17;;;;;;;;;;5016024;27;103519;-74
2022/01/12 02:42:10;;;;;;;91.95;23.65;;;;;;;;;;5016033;27;100214;-77
2022/01/12 02:55:43;;;;;;;96.07;29.95;;;;;;;;;;4984115;27;100516;-75
2022/01/12 02:58:10;;;;;;;114.20;29.15;;;;;;;;;;4998977;27;101135;-74
2022/01/12 03:03:24;;;;;;;96.47;28.23;;;;;;;;;;5032785;27;100106;-76
2022/01/12 03:06:03;;;;;;;92.07;25.50;;;;;;;;;;5032273;27;100198;-76
2022/01/12 03:08:36;;;;;;;103.85;28.45;;;;;;;;;;5033213;27;100608;-76
2022/01/12 03:11:08;;;;;;;82.15;23.88;;;;;;;;;;5031306;27;100332;-76
2022/01/12 03:13:35;;;;;;;111.47;31.67;;;;;;;;;;5016184;27;100013;-75
2022/01/12 03:16:12;;;;;;;94.97;26.98;;;;;;;;;;5015140;27;100401;-77
2022/01/12 03:18:40;;;;;;;110.75;31.83;;;;;;;;;;4999405;27;100669;-77
2022/01/12 03:21:07;;;;;;;91.82;26.08;;;;;;;;;;5008317;28;101268;-76
2022/01/12 03:23:34;;;;;;;105.13;27.10;;;;;;;;;;5014817;28;100050;-76
2022/01/12 03:26:01;;;;;;;98.97;26.75;;;;;;;;;;5015167;28;100315;-74
2022/01/12 03:28:29;;;;;;;86.30;28.73;;;;;;;;;;5015312;28;100554;-77
2022/01/12 03:31:06;;;;;;;93.65;28.55;;;;;;;;;;4999011;28;100163;-75
2022/01/12 03:33:49;;;;;;;98.13;27.88;;;;;;;;;;5016668;28;100060;-76
2022/01/12 03:39:04;;;;;;;96.47;26.88;;;;;;;;;;4998253;28;103304;-76
2022/01/12 03:41:35;;;;;;;79.90;23.20;;;;;;;;;;4998838;28;100094;-76
2022/01/12 03:44:04;;;;;;;77.93;22.77;;;;;;;;;;5020373;27;100291;-76
2022/01/12 03:46:34;;;;;;;84.85;26.52;;;;;;;;;;5018354;27;100496;-76
2022/01/12 03:49:01;;;;;;;89.93;27.20;;;;;;;;;;5051843;27;100537;-76
2022/01/12 03:51:28;;;;;;;86.22;23.63;;;;;;;;;;5035536;27;100003;-76
2022/01/12 03:53:55;;;;;;;82.70;23.55;;;;;;;;;;5019966;27;100079;-77
2022/01/12 03:56:22;;;;;;;72.55;20.88;;;;;;;;;;5014782;27;100261;-76
2022/01/12 03:58:49;;;;;;;85.15;25.38;;;;;;;;;;5014787;28;100623;-76
2022/01/12 04:01:16;;;;;;;78.25;21.65;;;;;;;;;;4981342;27;100266;-77
2022/01/12 04:03:46;;;;;;;83.03;23.45;;;;;;;;;;5033099;27;100000;-75
2022/01/12 04:08:59;;;;;;;81.32;26.23;;;;;;;;;;5014675;27;102561;-75
2022/01/12 04:11:26;;;;;;;75.78;23.70;;;;;;;;;;5018113;27;100222;-76
2022/01/12 04:13:53;;;;;;;71.80;23.20;;;;;;;;;;5018441;27;100047;-76
2022/01/12 04:16:20;;;;;;;60.17;18.55;;;;;;;;;;5017822;27;103102;-75
2022/01/12 04:18:47;;;;;;;71.38;18.88;;;;;;;;;;5034599;27;100692;-76
2022/01/12 04:21:14;;;;;;;59.08;18.30;;;;;;;;;;5053009;27;100099;-76
2022/01/12 04:23:42;;;;;;;56.35;17.95;;;;;;;;;;5017158;27;100045;-76
2022/01/12 04:26:11;;;;;;;61.00;18.23;;;;;;;;;;5034052;27;100203;-75
2022/01/12 04:28:41;;;;;;;48.72;15.85;;;;;;;;;;5034171;27;100596;-76
2022/01/12 04:31:08;;;;;;;42.97;12.60;;;;;;;;;;5002035;27;99992;-76
2022/01/12 04:33:36;;;;;;;50.03;16.67;;;;;;;;;;5018321;27;99792;-76
2022/01/12 04:36:04;;;;;;;52.50;16.63;;;;;;;;;;5034707;27;100394;-76
2022/01/12 04:38:33;;;;;;;51.40;16.98;;;;;;;;;;5010934;27;100791;-76
2022/01/12 04:41:03;;;;;;;57.85;17.55;;;;;;;;;;5015081;27;100139;-76
2022/01/12 04:43:30;;;;;;;45.28;14.27;;;;;;;;;;5032074;27;100048;-76
2022/01/12 04:48:35;;;;;;;52.20;15.55;;;;;;;;;;5031827;27;100596;-75
2022/01/12 04:51:03;;;;;;;51.88;16.83;;;;;;;;;;5030512;27;100253;-76
2022/01/12 04:53:31;;;;;;;53.08;17.67;;;;;;;;;;4997629;28;100030;-76
2022/01/12 04:55:59;;;;;;;50.47;18.65;;;;;;;;;;5029057;27;100229;-76
2022/01/12 04:58:27;;;;;;;48.28;15.10;;;;;;;;;;5034006;27;100806;-76
2022/01/12 05:00:57;;;;;;;56.38;18.27;;;;;;;;;;5018271;27;100071;-75
2022/01/12 05:14:39;;;;;;;55.40;18.08;;;;;;;;;;5050894;27;100114;-76
2022/01/12 05:17:05;;;;;;;50.10;16.10;;;;;;;;;;5034047;27;100372;-75
2022/01/12 05:19:32;;;;;;;47.40;16.52;;;;;;;;;;5050594;27;100761;-75
2022/01/12 05:22:00;;;;;;;50.80;17.20;;;;;;;;;;5051010;27;100066;-75
2022/01/12 05:24:28;;;;;;;55.63;18.23;;;;;;;;;;5033901;27;100103;-74
2022/01/12 05:27:15;;;;;;;49.80;15.40;;;;;;;;;;5016129;27;101486;-75
2022/01/12 05:29:41;;;;;;;60.58;17.30;;;;;;;;;;5051729;27;100555;-75
2022/01/12 05:32:10;;;;;;;51.28;15.23;;;;;;;;;;5033819;27;99979;-75
2022/01/12 05:34:39;;;;;;;42.20;14.63;;;;;;;;;;5019172;27;100104;-75
2022/01/12 05:37:06;;;;;;;42.95;14.60;;;;;;;;;;5054177;27;100290;-75
2022/01/12 05:39:33;;;;;;;46.35;14.32;;;;;;;;;;5053739;27;100666;-75
2022/01/12 05:42:20;;;;;;;44.00;15.40;;;;;;;;;;5023116;27;100407;-75
2022/01/12 05:44:47;;;;;;;55.35;17.20;;;;;;;;;;5053598;27;103166;-76
2022/01/12 05:47:32;;;;;;;52.75;16.50;;;;;;;;;;5053954;27;100264;-75
2022/01/12 05:49:59;;;;;;;;;;;;;;;;;;5013398;27;101098;-76
2022/01/12 05:52:26;;;;;;;54.58;16.27;;;;;;;;;;5055773;27;100154;-75
2022/01/12 05:54:53;;;;;;;42.28;15.82;;;;;;;;;;5054085;27;100186;-76
2022/01/12 05:57:20;;;;;;;46.17;15.13;;;;;;;;;;5036701;27;100309;-77
2022/01/12 05:59:47;;;;;;;42.38;13.75;;;;;;;;;;5037251;27;101347;-75
2022/01/12 06:02:14;;;;;;;44.22;15.07;;;;;;;;;;5020427;27;100152;-75
2022/01/12 06:04:41;;;;;;;43.75;16.30;;;;;;;;;;5013944;28;100046;-75
2022/01/12 06:07:09;;;;;;;42.17;13.77;;;;;;;;;;5032685;27;100454;-75
2022/01/12 06:09:36;;;;;;;35.75;12.52;;;;;;;;;;4999183;27;102577;-75
2022/01/12 06:12:03;;;;;;;41.10;14.02;;;;;;;;;;5016899;27;100231;-75
2022/01/12 06:14:30;;;;;;;28.25;10.70;;;;;;;;;;5034590;27;100075;-75
2022/01/12 06:16:58;;;;;;;27.40;10.07;;;;;;;;;;5000154;28;100192;-76
2022/01/12 06:19:25;;;;;;;25.65;8.65;;;;;;;;;;5015348;27;101812;-75
2022/01/12 06:22:05;;;;;;;33.88;9.50;;;;;;;;;;5034144;27;100042;-75
2022/01/12 06:24:32;;;;;;;21.80;8.15;;;;;;;;;;5037253;27;100132;-75
2022/01/12 06:27:00;;;;;;;37.05;10.02;;;;;;;;;;5019226;27;100424;-75
2022/01/12 06:31:55;;;;;;;29.63;10.35;;;;;;;;;;5015018;28;102282;-76
2022/01/12 06:34:27;;;;;;;21.70;7.13;;;;;;;;;;4985543;28;99960;-76
2022/01/12 06:36:54;;;;;;;27.92;9.27;;;;;;;;;;5016087;27;100872;-75
2022/01/12 06:39:23;;;;;;;23.90;7.78;;;;;;;;;;4999307;27;100571;-75
2022/01/12 06:41:51;;;;;;;18.27;7.35;;;;;;;;;;5016589;28;99958;-75
2022/01/12 06:44:20;;;;;;;24.33;8.73;;;;;;;;;;5031894;27;100250;-75
2022/01/12 06:46:48;;;;;;;21.02;8.05;;;;;;;;;;5014553;27;100429;-75
2022/01/12 06:49:16;;;;;;;22.35;7.78;;;;;;;;;;4982862;28;101191;-75
2022/01/12 06:51:46;;;;;;;26.67;8.43;;;;;;;;;;5032792;27;100175;-75
2022/01/12 06:54:13;;;;;;;20.40;6.80;;;;;;;;;;5032769;27;100053;-75
2022/01/12 06:56:40;;;;;;;20.33;7.63;;;;;;;;;;5015222;28;103488;-75
2022/01/12 06:59:07;;;;;;;28.73;9.52;;;;;;;;;;5001670;27;100282;-76
2022/01/12 07:01:36;;;;;;;20.67;7.68;;;;;;;;;;5020150;27;100195;-76
2022/01/12 07:04:05;;;;;;;27.75;9.00;;;;;;;;;;5019632;27;100064;-75
2022/01/12 07:06:34;;;;;;;18.02;6.97;;;;;;;;;;5035435;27;100252;-74
2022/01/12 07:09:04;;;;;;;22.40;8.77;;;;;;;;;;5011999;28;100912;-74
2022/01/12 07:11:54;;;;;;;35.20;10.85;;;;;;;;;;5013384;27;100333;-76
2022/01/12 07:14:33;;;;;;;25.08;8.25;;;;;;;;;;4998957;27;100399;-76
2022/01/12 07:17:01;;;;;;;29.58;10.57;;;;;;;;;;4998481;27;100850;-77
2022/01/12 07:19:28;;;;;;;26.65;7.97;;;;;;;;;;5032046;27;100626;-76
2022/01/12 07:21:57;;;;;;;26.55;8.55;;;;;;;;;;5015241;27;100261;-75
2022/01/12 07:24:23;;;;;;;21.17;7.13;;;;;;;;;;4999424;28;99892;-75
2022/01/12 07:26:50;;;;;;;25.35;7.80;;;;;;;;;;5033189;28;100170;-75
2022/01/12 07:29:17;;;;;;;21.63;7.65;;;;;;;;;;5033100;28;100739;-75
2022/01/12 07:31:46;;;;;;;24.70;8.48;;;;;;;;;;5032360;28;100182;-76
2022/01/12 07:34:14;;;;;;;31.10;9.73;;;;;;;;;;5032011;28;100089;-75
2022/01/12 07:36:42;;;;;;;23.83;8.75;;;;;;;;;;4998338;28;100455;-75
2022/01/12 07:39:08;;;;;;;22.08;7.05;;;;;;;;;;5033374;28;100661;-75
2022/01/12 07:41:35;;;;;;;24.35;9.07;;;;;;;;;;5015319;28;100138;-75
2022/01/12 07:44:02;;;;;;;20.42;8.18;;;;;;;;;;5002470;27;100318;-75
2022/01/12 07:46:29;;;;;;;24.23;8.43;;;;;;;;;;5052333;27;100348;-75
2022/01/12 07:48:56;;;;;;;24.88;9.05;;;;;;;;;;5034597;27;100690;-76
2022/01/12 07:51:23;;;;;;;30.17;10.60;;;;;;;;;;5031519;27;100353;-76
2022/01/12 07:53:50;;;;;;;23.40;9.23;;;;;;;;;;5033297;27;100106;-75
2022/01/12 07:56:16;;;;;;;29.70;10.38;;;;;;;;;;5031765;27;100219;-75
2022/01/12 07:58:43;;;;;;;24.75;9.40;;;;;;;;;;5033327;27;100706;-76
2022/01/12 08:01:12;;;;;;;29.88;10.15;;;;;;;;;;5035219;27;100071;-75
2022/01/12 08:03:39;;;;;;;22.17;8.73;;;;;;;;;;5036153;27;100100;-75
2022/01/12 08:06:06;;;;;;;26.88;8.68;;;;;;;;;;5034645;27;100205;-75
2022/01/12 08:08:33;;;;;;;26.92;9.02;;;;;;;;;;5034969;27;100878;-75
2022/01/12 08:11:00;;;;;;;27.42;9.20;;;;;;;;;;5052744;27;100024;-75
2022/01/12 08:13:27;;;;;;;37.65;11.55;;;;;;;;;;5034769;27;100284;-75
2022/01/12 08:15:54;;;;;;;29.35;10.07;;;;;;;;;;5055657;27;100773;-74
2022/01/12 08:18:21;;;;;;;25.90;9.65;;;;;;;;;;5054927;27;100626;-74
2022/01/12 08:20:48;;;;;;;25.58;9.27;;;;;;;;;;5018023;27;101013;-76
2022/01/12 08:23:14;;;;;;;24.33;8.13;;;;;;;;;;5020348;27;100206;-75
2022/01/12 08:25:41;;;;;;;27.38;10.00;;;;;;;;;;5052481;27;100291;-74
2022/01/12 08:28:08;;;;;;;19.30;7.28;;;;;;;;;;5052661;27;100826;-75
2022/01/12 08:30:35;;;;;;;29.27;9.48;;;;;;;;;;5034756;27;100159;-75
2022/01/12 08:33:04;;;;;;;23.77;7.93;;;;;;;;;;5034820;27;100497;-75
2022/01/12 08:35:31;;;;;;;23.55;8.15;;;;;;;;;;5013945;27;100791;-74
2022/01/12 08:37:58;;;;;;;31.48;10.65;;;;;;;;;;5045420;27;100503;-75
2022/01/12 08:40:25;;;;;;;20.35;8.40;;;;;;;;;;5032884;27;100099;-75
2022/01/12 08:42:52;;;;;;;25.70;8.85;;;;;;;;;;5013571;27;100033;-75
2022/01/12 08:45:19;;;;;;;19.45;8.02;;;;;;;;;;5016915;27;100777;-75
2022/01/12 08:47:46;;;;;;;19.08;7.55;;;;;;;;;;5034484;27;100583;-75
2022/01/12 08:50:13;;;;;;;33.85;10.32;;;;;;;;;;5034657;27;100145;-75
2022/01/12 08:52:44;;;;;;;20.02;7.88;;;;;;;;;;5018344;27;100057;-75
2022/01/12 08:55:13;;;;;;;20.23;7.70;;;;;;;;;;5052074;27;100227;-75
2022/01/12 08:57:39;;;;;;;36.65;11.60;;;;;;;;;;5034095;27;100655;-75
2022/01/12 09:00:08;;;;;;;222.48;57.30;;;;;;;;;;5033812;27;100027;-74
2022/01/12 09:02:35;;;;;;;69.45;20.60;;;;;;;;;;5034092;27;100107;-75
2022/01/12 09:05:03;;;;;;;66.35;19.88;;;;;;;;;;5050320;27;100302;-75
2022/01/12 09:07:30;;;;;;;34.97;13.05;;;;;;;;;;5030124;27;100548;-76
2022/01/12 09:09:57;;;;;;;26.60;10.00;;;;;;;;;;5033955;27;100308;-76
2022/01/12 09:12:25;;;;;;;27.70;9.65;;;;;;;;;;5033064;27;100149;-76
2022/01/12 09:14:53;;;;;;;23.05;8.82;;;;;;;;;;5032343;27;100367;-77
2022/01/12 09:17:21;;;;;;;22.75;9.38;;;;;;;;;;5033134;27;101776;-75
2022/01/12 09:19:48;;;;;;;25.02;8.90;;;;;;;;;;5051863;27;100171;-75
2022/01/12 09:22:15;;;;;;;23.67;8.88;;;;;;;;;;5032579;27;100126;-76
2022/01/12 09:24:44;;;;;;;25.55;8.95;;;;;;;;;;5015788;27;100148;-75
2022/01/12 09:27:11;;;;;;;28.02;9.82;;;;;;;;;;5041711;27;101112;-75
2022/01/12 09:29:38;;;;;;;29.17;8.90;;;;;;;;;;5032717;27;100203;-75
2022/01/12 09:32:05;;;;;;;27.33;9.50;;;;;;;;;;5046691;27;100029;-75
2022/01/12 09:34:32;;;;;;;28.33;9.38;;;;;;;;;;5049685;27;100359;-75
2022/01/12 09:36:58;;;;;;;24.95;8.63;;;;;;;;;;5051211;27;102649;-76
2022/01/12 09:39:25;;;;;;;23.20;7.90;;;;;;;;;;5017109;27;100250;-75
2022/01/12 09:41:52;;;;;;;30.98;10.02;;;;;;;;;;5014470;27;100226;-76
2022/01/12 09:44:19;;;;;;;27.60;10.55;;;;;;;;;;5050469;27;100307;-76
2022/01/12 09:46:46;;;;;;;29.52;10.73;;;;;;;;;;5050174;27;100559;-75
2022/01/12 09:49:13;;;;;;;32.40;10.20;;;;;;;;;;5045283;27;100085;-76
2022/01/12 09:51:40;;;;;;;26.63;10.23;;;;;;;;;;5050720;27;100132;-76
2022/01/12 09:54:07;;;;;;;31.15;10.25;;;;;;;;;;5048642;27;100424;-76
2022/01/12 09:56:34;;;;;;;28.15;9.75;;;;;;;;;;5031786;27;101212;-76
2022/01/12 09:59:06;;;;;;;34.72;11.38;;;;;;;;;;5031497;27;100583;-76
2022/01/12 10:01:35;;;;;;;33.88;12.52;;;;;;;;;;5011975;27;100209;-77
2022/01/12 10:04:19;;;;;;;25.92;10.60;;;;;;;;;;4995559;27;100219;-78
2022/01/12 10:07:07;;;;;;;36.47;13.38;;;;;;;;;;5044005;27;100582;-77
2022/01/12 10:09:43;;;;;;;28.65;9.63;;;;;;;;;;5031273;27;100448;-76
2022/01/12 10:12:18;;;;;;;21.00;8.13;;;;;;;;;;5049980;27;100119;-76
2022/01/12 10:14:59;;;;;;;23.23;8.52;;;;;;;;;;5015097;27;100357;-77
2022/01/12 10:17:36;;;;;;;27.02;10.18;;;;;;;;;;5046701;27;101374;-76
2022/01/12 10:20:21;;;;;;;21.63;7.72;;;;;;;;;;5021154;27;100517;-75
2022/01/12 10:22:58;;;;;;;26.35;8.98;;;;;;;;;;5024883;27;100124;-75
2022/01/12 10:25:27;;;;;;;22.35;8.70;;;;;;;;;;5032324;27;100393;-76
2022/01/12 10:27:55;;;;;;;27.17;9.90;;;;;;;;;;5055445;27;100703;-74
2022/01/12 10:30:29;;;;;;;27.67;9.15;;;;;;;;;;5074049;27;100340;-75
2022/01/12 10:33:03;;;;;;;31.75;10.65;;;;;;;;;;5056006;27;100185;-76
2022/01/12 10:35:30;;;;;;;28.47;10.27;;;;;;;;;;5073214;27;100823;-75
2022/01/12 10:38:08;;;;;;;31.63;10.63;;;;;;;;;;5021599;27;101119;-74
2022/01/12 10:40:53;;;;;;;19.70;7.93;;;;;;;;;;5010713;27;100097;-74
2022/01/12 10:43:34;;;;;;;24.52;8.45;;;;;;;;;;5052488;27;100298;-75
2022/01/12 10:46:04;;;;;;;29.85;11.20;;;;;;;;;;5033723;27;102282;-74
2022/01/12 10:48:48;;;;;;;27.58;10.57;;;;;;;;;;5052950;27;101085;-75
2022/01/12 10:51:26;;;;;;;29.67;10.02;;;;;;;;;;5034993;27;100059;-75
2022/01/12 10:53:54;;;;;;;26.73;9.10;;;;;;;;;;5014218;28;100172;-75
2022/01/12 10:56:22;;;;;;;33.85;12.07;;;;;;;;;;5017282;27;100321;-76
2022/01/12 10:58:50;;;;;;;29.15;10.68;;;;;;;;;;5025716;27;100681;-76
2022/01/12 11:01:18;;;;;;;27.10;11.32;;;;;;;;;;5020759;27;100657;-76
2022/01/12 11:03:46;;;;;;;22.40;9.10;;;;;;;;;;5015053;27;100729;-76
2022/01/12 11:06:13;;;;;;;30.92;10.63;;;;;;;;;;5042372;27;100200;-75
2022/01/12 11:08:40;;;;;;;28.08;10.63;;;;;;;;;;5051321;27;101644;-75
2022/01/12 11:11:07;;;;;;;27.25;10.23;;;;;;;;;;5008495;28;100334;-75
2022/01/12 11:13:35;;;;;;;31.98;10.95;;;;;;;;;;5020703;27;100219;-76
2022/01/12 11:16:02;;;;;;;27.48;10.57;;;;;;;;;;5028482;27;100844;-76
2022/01/12 11:18:35;;;;;;;26.95;10.52;;;;;;;;;;5014221;28;101324;-76
2022/01/12 11:21:24;;;;;;;28.83;12.35;;;;;;;;;;5020538;27;102112;-76
2022/01/12 11:23:51;;;;;;;35.15;12.13;;;;;;;;;;5055491;27;100028;-75
2022/01/12 11:26:27;;;;;;;25.65;10.45;;;;;;;;;;5037454;27;100292;-75
2022/01/12 11:28:54;;;;;;;21.85;9.38;;;;;;;;;;5037455;27;101242;-76
2022/01/12 11:31:26;;;;;;;27.13;10.52;;;;;;;;;;5038287;27;100063;-75
2022/01/12 11:33:52;;;;;;;23.40;8.73;;;;;;;;;;5051904;27;100217;-76
2022/01/12 11:36:20;;;;;;;27.98;10.13;;;;;;;;;;5030632;27;100946;-76
2022/01/12 11:38:58;;;;;;;26.92;8.93;;;;;;;;;;5033266;27;101228;-76
2022/01/12 11:41:30;;;;;;;19.58;8.10;;;;;;;;;;5010523;27;100212;-77
2022/01/12 11:44:05;;;;;;;29.52;10.75;;;;;;;;;;5051732;27;100011;-76
2022/01/12 11:46:54;;;;;;;20.38;8.23;;;;;;;;;;5016988;27;100404;-75
2022/01/12 11:49:40;;;;;;;26.70;10.23;;;;;;;;;;5046296;27;101136;-76
2022/01/12 11:52:16;;;;;;;22.48;9.00;;;;;;;;;;5034995;27;100184;-74
2022/01/12 11:54:47;;;;;;;26.13;10.23;;;;;;;;;;5034132;27;100165;-75
2022/01/12 11:57:19;;;;;;;28.92;10.30;;;;;;;;;;5017776;27;100211;-76
2022/01/12 11:59:49;;;;;;;24.70;9.32;;;;;;;;;;5035013;27;100774;-75
2022/01/12 12:02:16;;;;;;;24.85;9.82;;;;;;;;;;5050480;27;100202;-74
2022/01/12 12:04:56;;;;;;;30.95;11.35;;;;;;;;;;5033561;27;100096;-76
2022/01/12 12:07:24;;;;;;;30.60;10.60;;;;;;;;;;5050852;27;100850;-76
2022/01/12 12:09:53;;;;;;;23.50;8.60;;;;;;;;;;5051320;27;101661;-76
2022/01/12 12:12:26;;;;;;;22.17;8.93;;;;;;;;;;5047169;27;100935;-76
2022/01/12 12:14:54;;;;;;;18.73;8.07;;;;;;;;;;5034641;27;100219;-75
2022/01/12 12:17:22;;;;;;;21.70;7.90;;;;;;;;;;5015485;27;100386;-75
2022/01/12 12:19:49;;;;;;;27.42;9.13;;;;;;;;;;5032650;27;100534;-75
2022/01/12 12:22:17;;;;;;;23.95;9.48;;;;;;;;;;5033013;27;100256;-76
2022/01/12 12:24:46;;;;;;;23.75;8.52;;;;;;;;;;5017100;27;100666;-75
2022/01/12 12:27:17;;;;;;;25.77;9.05;;;;;;;;;;5030927;27;101072;-76
2022/01/12 12:29:44;;;;;;;26.40;9.40;;;;;;;;;;5012845;27;100652;-77
2022/01/12 12:32:13;;;;;;;27.98;9.93;;;;;;;;;;5000459;27;99988;-76
2022/01/12 12:34:41;;;;;;;26.10;9.63;;;;;;;;;;4999414;27;100443;-75
2022/01/12 12:37:11;;;;;;;32.78;11.43;;;;;;;;;;5028493;27;100449;-76
2022/01/12 12:39:39;;;;;;;29.77;9.80;;;;;;;;;;5012472;27;100624;-75
2022/01/12 12:42:20;;;;;;;28.75;9.45;;;;;;;;;;5012298;27;100575;-76
2022/01/12 12:44:47;;;;;;;41.78;15.23;;;;;;;;;;5051334;27;100249;-76
2022/01/12 12:47:18;;;;;;;25.45;10.20;;;;;;;;;;5038511;27;101297;-75
2022/01/12 12:49:54;;;;;;;29.08;9.65;;;;;;;;;;5022259;27;100767;-75
2022/01/12 12:52:34;;;;;;;21.45;9.73;;;;;;;;;;5013618;27;100067;-75
2022/01/12 12:55:04;;;;;;;30.48;12.23;;;;;;;;;;5050566;27;100028;-75
2022/01/12 12:57:31;;;;;;;26.75;9.63;;;;;;;;;;5050777;27;100331;-75
2022/01/12 13:00:11;;;;;;;25.17;8.20;;;;;;;;;;5005393;27;100579;-74
2022/01/12 13:02:42;;;;;;;28.90;11.00;;;;;;;;;;4997419;27;100120;-74
2022/01/12 13:05:18;;;;;;;31.95;12.63;;;;;;;;;;5031425;27;100195;-74
2022/01/12 13:07:47;;;;;;;27.23;9.45;;;;;;;;;;5022641;27;101481;-76
2022/01/12 13:10:20;;;;;;;27.15;9.80;;;;;;;;;;5012784;27;100730;-75
2022/01/12 13:12:51;;;;;;;31.88;9.93;;;;;;;;;;5031108;27;100237;-76
2022/01/12 13:15:32;;;;;;;27.05;9.27;;;;;;;;;;5019764;27;100150;-75
2022/01/12 13:18:02;;;;;;;27.33;8.98;;;;;;;;;;5048025;27;100515;-75
2022/01/12 13:23:24;;;;;;;28.00;9.90;;;;;;;;;;5048090;27;100002;-75
2022/01/12 13:25:55;;;;;;;27.20;9.95;;;;;;;;;;5022138;27;100523;-75
2022/01/12 13:28:23;;;;;;;23.95;10.10;;;;;;;;;;5037360;27;100330;-74
2022/01/12 13:30:57;;;;;;;31.65;12.23;;;;;;;;;;5012712;28;100588;-75
2022/01/12 13:33:28;;;;;;;25.88;9.27;;;;;;;;;;5030730;27;100048;-75
2022/01/12 13:35:55;;;;;;;19.42;8.43;;;;;;;;;;5048355;27;100386;-75
2022/01/12 13:38:40;;;;;;;25.35;10.82;;;;;;;;;;5034931;27;100755;-76
2022/01/12 13:41:17;;;;;;;23.73;9.70;;;;;;;;;;5043542;27;101115;-75
2022/01/12 13:43:45;;;;;;;25.73;9.90;;;;;;;;;;5021136;28;100094;-75
2022/01/12 13:46:13;;;;;;;26.17;9.93;;;;;;;;;;4995811;27;100176;-75
2022/01/12 13:51:54;;;;;;;25.73;11.48;;;;;;;;;;5015248;28;100569;-75
2022/01/12 13:54:21;;;;;;;33.50;12.20;;;;;;;;;;5008819;28;100065;-75
2022/01/12 13:56:51;;;;;;;27.50;10.63;;;;;;;;;;5033603;27;100150;-75
2022/01/12 13:59:19;;;;;;;31.45;11.45;;;;;;;;;;5015542;28;100327;-75
2022/01/12 14:01:46;;;;;;;31.10;12.38;;;;;;;;;;5015914;28;103005;-75
2022/01/12 14:04:34;;;;;;;30.75;12.18;;;;;;;;;;5021514;28;99973;-75
2022/01/12 14:07:04;;;;;;;26.02;10.13;;;;;;;;;;4999158;28;100076;-75
2022/01/12 14:12:14;;;;;;;25.55;9.20;;;;;;;;;;5011735;28;102166;-75
2022/01/12 14:14:53;;;;;;;25.67;10.38;;;;;;;;;;5014364;28;100111;-75
2022/01/12 14:17:42;;;;;;;20.38;9.23;;;;;;;;;;4999589;27;100116;-75
2022/01/12 14:20:10;;;;;;;21.35;9.70;;;;;;;;;;5032227;27;100629;-74
2022/01/12 14:22:58;;;;;;;23.95;8.75;;;;;;;;;;4998011;27;103346;-75
2022/01/12 14:25:48;;;;;;;30.42;10.30;;;;;;;;;;5011202;28;100235;-75
2022/01/12 14:28:29;;;;;;;30.70;10.02;;;;;;;;;;5033188;27;100666;-74
2022/01/12 14:30:55;;;;;;;31.23;10.82;;;;;;;;;;5016813;28;100218;-75
2022/01/12 14:33:22;;;;;;;33.28;12.27;;;;;;;;;;4980973;28;100640;-75
2022/01/12 14:35:49;;;;;;;35.03;12.95;;;;;;;;;;5033778;27;100273;-75
2022/01/12 14:38:16;;;;;;;33.60;12.65;;;;;;;;;;4999508;28;99920;-75
2022/01/12 14:40:44;;;;;;;35.25;12.18;;;;;;;;;;5013278;28;128426;-74
2022/01/12 14:43:13;;;;;;;34.67;12.27;;;;;;;;;;5031399;28;130196;-75
2022/01/12 14:45:41;;;;;;;31.90;11.18;;;;;;;;;;5015938;28;117973;-76
2022/01/12 14:48:16;;;;;;;20.85;8.93;;;;;;;;;;5040369;27;118918;-75
2022/01/12 14:50:44;;;;;;;31.25;11.45;;;;;;;;;;5022070;27;129606;-75
2022/01/12 14:53:12;;;;;;;28.75;11.50;;;;;;;;;;5031078;27;128903;-75
2022/01/12 14:55:45;;;;;;;27.77;10.50;;;;;;;;;;5033043;27;100415;-75
2022/01/12 14:58:12;;;;;;;42.28;16.10;;;;;;;;;;5032978;27;100096;-75
2022/01/12 15:00:38;;;;;;;27.00;11.95;;;;;;;;;;5032491;27;100061;-74
2022/01/12 15:03:09;;;;;;;22.95;10.60;;;;;;;;;;5032377;27;100631;-75
2022/01/12 15:05:39;;;;;;;43.85;15.70;;;;;;;;;;4999198;27;100193;-75
2022/01/12 15:08:06;;;;;;;42.45;15.55;;;;;;;;;;5032253;27;100149;-74
2022/01/12 15:10:32;;;;;;;30.77;12.40;;;;;;;;;;5032930;27;100725;-74
2022/01/12 15:13:13;;;;;;;30.23;11.18;;;;;;;;;;5032671;27;100620;-74
2022/01/12 15:15:41;;;;;;;39.28;15.10;;;;;;;;;;5035342;27;100126;-75
2022/01/12 15:18:09;;;;;;;43.67;16.50;;;;;;;;;;5018377;27;100150;-74
2022/01/12 15:20:36;;;;;;;36.72;14.18;;;;;;;;;;5034234;27;100806;-74
2022/01/12 15:23:03;;;;;;;39.55;15.52;;;;;;;;;;5042155;27;100128;-75
2022/01/12 15:25:30;;;;;;;34.28;13.38;;;;;;;;;;5033753;27;100137;-75
2022/01/12 15:27:56;;;;;;;34.80;13.82;;;;;;;;;;5018366;27;100137;-75
2022/01/12 15:30:23;;;;;;;35.25;14.55;;;;;;;;;;5034394;27;103087;-75
2022/01/12 15:32:53;;;;;;;40.00;17.25;;;;;;;;;;5001074;27;101979;-76
2022/01/12 15:35:22;;;;;;;36.08;16.27;;;;;;;;;;5018681;27;100229;-75
2022/01/12 15:37:49;;;;;;;36.38;16.52;;;;;;;;;;5018986;27;100025;-75
2022/01/12 15:40:18;;;;;;;40.28;16.63;;;;;;;;;;5031109;27;103057;-75
2022/01/12 15:42:45;;;;;;;30.75;11.88;;;;;;;;;;5032087;27;100559;-75
2022/01/12 15:45:12;;;;;;;34.88;14.73;;;;;;;;;;5013732;27;100126;-75
2022/01/12 15:47:39;;;;;;;37.42;14.65;;;;;;;;;;5003633;27;101259;-75
2022/01/12 15:50:06;;;;;;;39.85;15.88;;;;;;;;;;5031908;27;100401;-75
2022/01/12 15:52:33;;;;;;;42.13;15.95;;;;;;;;;;4997456;27;100656;-75
2022/01/12 15:55:00;;;;;;;37.53;14.00;;;;;;;;;;5032316;27;100156;-75
2022/01/12 15:57:27;;;;;;;74.45;28.50;;;;;;;;;;5008443;27;100137;-75
2022/01/12 15:59:54;;;;;;;37.28;16.73;;;;;;;;;;5033549;27;100828;-75